PWSweather.com
Personal Weather Stations
Station Observations
DW1039
Liberty & Fairfield Townships, Hamilton, OH 45011

Liberty & Fairfield TownshipsHamilton, OH 45011

Lat: 39.3933, Lon: -84.477

Elevation: 780

Station Type: Davis Vantage Pro2 (Daytime Fan Aspirated)

http://www.lfweathercenter.com/

High Low Average
Temperature 28.0°F-2.2°C 22.9°F-5.1°C 24.8°F-4.0°C
Dew Point 26.0°F-3.3°C 20.3°F-6.5°C 22.6°F-5.2°C
Winds 13.0 mph 20.9 kmh Calm Calm 4.0 mph E6.4 kmh E
Wind Gusts 17.0 mph27.4 kmh 2.0 mph3.2 kmh 9.0 mph14.5 kmh
Humidity 92% 89% 91%
Pressure 30.28 in1025.4 mb 29.95 in1014.2 mb -
Precipitation 0.13 in3.3 mm - -
Hour Temp Dew Point Humidity Winds Wind Gusts Pressure Precip Precip Rate Daily Precip Total
12:00 AM 26.2°F-3.2°C 23.7°F-4.6°C 90% 5.0 mph NE8.0 kmh NE 15.0 mph24.1 kmh 29.98 in1015.2 mb 0.01 in0.3 mm 0.00 in/hr0.0 mm/hr 0.01 in0.3 mm
12:10 AM 26.5°F-3.1°C 24.2°F-4.3°C 91% 8.0 mph NE12.9 kmh NE 13.0 mph20.9 kmh 29.97 in1014.9 mb 0.02 in0.5 mm 0.06 in/hr1.5 mm/hr 0.02 in0.5 mm
12:20 AM 27.0°F-2.8°C 25.0°F-3.9°C 92% 11.0 mph ENE17.7 kmh ENE 12.0 mph19.3 kmh 29.97 in1014.9 mb 0.04 in1.0 mm 0.12 in/hr3.0 mm/hr 0.04 in1.0 mm
12:30 AM 26.7°F-2.9°C 24.7°F-4.1°C 92% 7.0 mph NE11.3 kmh NE 16.0 mph25.7 kmh 29.97 in1014.9 mb 0.05 in1.3 mm 0.06 in/hr1.5 mm/hr 0.05 in1.3 mm
12:40 AM 27.2°F-2.7°C 25.2°F-3.8°C 92% 6.0 mph NNE9.7 kmh NNE 12.0 mph19.3 kmh 29.96 in1014.6 mb 0.07 in1.8 mm 0.12 in/hr3.0 mm/hr 0.07 in1.8 mm
12:50 AM 26.9°F-2.8°C 24.9°F-3.9°C 92% 8.0 mph ENE12.9 kmh ENE 16.0 mph25.7 kmh 29.96 in1014.6 mb 0.10 in2.5 mm 0.18 in/hr4.6 mm/hr 0.10 in2.5 mm
01:01 AM 27.4°F-2.6°C 25.4°F-3.7°C 92% 1.0 mph NNE1.6 kmh NNE 14.0 mph22.5 kmh 29.96 in1014.6 mb 0.13 in3.3 mm 0.04 in/hr1.0 mm/hr 0.13 in3.3 mm
01:10 AM 28.0°F-2.2°C 26.0°F-3.3°C 92% 4.0 mph NE6.4 kmh NE 8.0 mph12.9 kmh 29.95 in1014.2 mb 0.14 in3.6 mm 0.07 in/hr1.8 mm/hr 0.14 in3.6 mm
01:20 AM 27.3°F-2.6°C 25.3°F-3.7°C 92% 2.0 mph N3.2 kmh N 10.0 mph16.1 kmh 29.97 in1014.9 mb 0.14 in3.6 mm 0.00 in/hr0.0 mm/hr 0.14 in3.6 mm
01:30 AM 27.3°F-2.6°C 25.3°F-3.7°C 92% 4.0 mph N6.4 kmh N 8.0 mph12.9 kmh 29.96 in1014.6 mb 0.15 in3.8 mm 0.06 in/hr1.5 mm/hr 0.15 in3.8 mm
01:40 AM 27.2°F-2.7°C 25.2°F-3.8°C 92% 3.0 mph N4.8 kmh N 11.0 mph17.7 kmh 29.96 in1014.6 mb 0.16 in4.1 mm 0.06 in/hr1.5 mm/hr 0.16 in4.1 mm
01:50 AM 27.5°F-2.5°C 25.5°F-3.6°C 92% 3.0 mph N4.8 kmh N 11.0 mph17.7 kmh 29.96 in1014.6 mb 0.15 in3.8 mm 0.00 in/hr0.0 mm/hr 0.16 in4.1 mm
02:00 AM 27.0°F-2.8°C 25.0°F-3.9°C 92% 3.0 mph N4.8 kmh N 9.0 mph14.5 kmh 29.96 in1014.6 mb 0.12 in3.0 mm 0.00 in/hr0.0 mm/hr 0.16 in4.1 mm
02:10 AM 26.7°F-2.9°C 24.7°F-4.1°C 92% 4.0 mph NNW6.4 kmh NNW 7.0 mph11.3 kmh 29.96 in1014.6 mb 0.11 in2.8 mm 0.00 in/hr0.0 mm/hr 0.16 in4.1 mm
02:20 AM 26.3°F-3.2°C 24.3°F-4.3°C 92% 5.0 mph NE8.0 kmh NE 9.0 mph14.5 kmh 29.97 in1014.9 mb 0.10 in2.5 mm 0.00 in/hr0.0 mm/hr 0.16 in4.1 mm
02:30 AM 26.3°F-3.2°C 24.3°F-4.3°C 92% 3.0 mph N4.8 kmh N 11.0 mph17.7 kmh 29.97 in1014.9 mb 0.08 in2.0 mm 0.00 in/hr0.0 mm/hr 0.16 in4.1 mm
02:40 AM 26.3°F-3.2°C 24.3°F-4.3°C 92% 4.0 mph NNE6.4 kmh NNE 11.0 mph17.7 kmh 29.97 in1014.9 mb 0.06 in1.5 mm 0.00 in/hr0.0 mm/hr 0.16 in4.1 mm
02:50 AM 25.8°F-3.4°C 23.8°F-4.6°C 92% 6.0 mph NNE9.7 kmh NNE 13.0 mph20.9 kmh 29.97 in1014.9 mb 0.05 in1.3 mm 0.00 in/hr0.0 mm/hr 0.16 in4.1 mm
03:01 AM 25.7°F-3.5°C 23.7°F-4.6°C 92% 13.0 mph N20.9 kmh N 13.0 mph20.9 kmh 29.96 in1014.6 mb 0.04 in1.0 mm 0.00 in/hr0.0 mm/hr 0.16 in4.1 mm
03:10 AM 25.6°F-3.6°C 23.6°F-4.7°C 92% 6.0 mph N9.7 kmh N 13.0 mph20.9 kmh 29.97 in1014.9 mb 0.04 in1.0 mm 0.00 in/hr0.0 mm/hr 0.16 in4.1 mm
03:20 AM 25.6°F-3.6°C 23.6°F-4.7°C 92% 4.0 mph N6.4 kmh N 11.0 mph17.7 kmh 29.97 in1014.9 mb 0.03 in0.8 mm 0.00 in/hr0.0 mm/hr 0.16 in4.1 mm
03:30 AM 25.7°F-3.5°C 23.7°F-4.6°C 92% 7.0 mph NNE11.3 kmh NNE 13.0 mph20.9 kmh 29.97 in1014.9 mb 0.04 in1.0 mm 0.06 in/hr1.5 mm/hr 0.17 in4.3 mm
03:40 AM 25.8°F-3.4°C 23.8°F-4.6°C 92% 5.0 mph NNW8.0 kmh NNW 11.0 mph17.7 kmh 29.97 in1014.9 mb 0.03 in0.8 mm 0.00 in/hr0.0 mm/hr 0.17 in4.3 mm
03:50 AM 25.9°F-3.4°C 23.9°F-4.5°C 92% 6.0 mph N9.7 kmh N 12.0 mph19.3 kmh 29.95 in1014.2 mb 0.02 in0.5 mm 0.00 in/hr0.0 mm/hr 0.17 in4.3 mm
04:00 AM 25.8°F-3.4°C 23.8°F-4.6°C 92% 6.0 mph NNE9.7 kmh NNE 13.0 mph20.9 kmh 29.95 in1014.2 mb 0.02 in0.5 mm 0.00 in/hr0.0 mm/hr 0.17 in4.3 mm
04:10 AM 25.6°F-3.6°C 23.3°F-4.8°C 91% 6.0 mph NNE9.7 kmh NNE 6.0 mph9.7 kmh 29.96 in1014.6 mb 0.02 in0.5 mm 0.00 in/hr0.0 mm/hr 0.17 in4.3 mm
04:20 AM 25.2°F-3.8°C 23.0°F-5.0°C 91% 3.0 mph NNE4.8 kmh NNE 10.0 mph16.1 kmh 29.97 in1014.9 mb 0.02 in0.5 mm 0.00 in/hr0.0 mm/hr 0.17 in4.3 mm
04:30 AM 25.2°F-3.8°C 23.0°F-5.0°C 91% 4.0 mph N6.4 kmh N 10.0 mph16.1 kmh 29.96 in1014.6 mb 0.01 in0.3 mm 0.00 in/hr0.0 mm/hr 0.17 in4.3 mm
04:40 AM 25.2°F-3.8°C 23.0°F-5.0°C 91% 3.0 mph NNE4.8 kmh NNE 7.0 mph11.3 kmh 29.96 in1014.6 mb 0.01 in0.3 mm 0.00 in/hr0.0 mm/hr 0.17 in4.3 mm
04:50 AM 25.2°F-3.8°C 23.0°F-5.0°C 91% 2.0 mph N3.2 kmh N 10.0 mph16.1 kmh 29.97 in1014.9 mb 0.01 in0.3 mm 0.00 in/hr0.0 mm/hr 0.17 in4.3 mm
05:00 AM 25.3°F-3.7°C 23.1°F-4.9°C 91% 2.0 mph NNE3.2 kmh NNE 5.0 mph8.0 kmh 29.98 in1015.2 mb 0.01 in0.3 mm 0.00 in/hr0.0 mm/hr 0.17 in4.3 mm
05:10 AM 25.3°F-3.7°C 23.1°F-4.9°C 91% 4.0 mph NE6.4 kmh NE 7.0 mph11.3 kmh 29.98 in1015.2 mb 0.00 in0.0 mm 0.00 in/hr0.0 mm/hr 0.17 in4.3 mm
05:20 AM 25.3°F-3.7°C 23.1°F-4.9°C 91% 3.0 mph N4.8 kmh N 7.0 mph11.3 kmh 29.98 in1015.2 mb 0.00 in0.0 mm 0.00 in/hr0.0 mm/hr 0.17 in4.3 mm
05:30 AM 25.3°F-3.7°C 23.1°F-4.9°C 91% 2.0 mph NNE3.2 kmh NNE 4.0 mph6.4 kmh 29.98 in1015.2 mb 0.00 in0.0 mm 0.00 in/hr0.0 mm/hr 0.17 in4.3 mm
05:40 AM 25.4°F-3.7°C 23.1°F-4.9°C 91% Calm Calm 5.0 mph8.0 kmh 29.98 in1015.2 mb 0.00 in0.0 mm 0.00 in/hr0.0 mm/hr 0.17 in4.3 mm
05:50 AM 25.6°F-3.6°C 23.3°F-4.8°C 91% 4.0 mph N6.4 kmh N 5.0 mph8.0 kmh 29.98 in1015.2 mb 0.00 in0.0 mm 0.00 in/hr0.0 mm/hr 0.17 in4.3 mm
06:00 AM 25.6°F-3.6°C 23.3°F-4.8°C 91% 2.0 mph N3.2 kmh N 5.0 mph8.0 kmh 29.98 in1015.2 mb 0.00 in0.0 mm 0.00 in/hr0.0 mm/hr 0.17 in4.3 mm
06:10 AM 25.7°F-3.5°C 23.4°F-4.8°C 91% 4.0 mph NNE6.4 kmh NNE 10.0 mph16.1 kmh 29.98 in1015.2 mb 0.00 in0.0 mm 0.00 in/hr0.0 mm/hr 0.17 in4.3 mm
06:20 AM 25.8°F-3.4°C 23.5°F-4.7°C 91% 3.0 mph N4.8 kmh N 7.0 mph11.3 kmh 29.99 in1015.6 mb 0.00 in0.0 mm 0.00 in/hr0.0 mm/hr 0.17 in4.3 mm
06:30 AM 25.6°F-3.6°C 23.3°F-4.8°C 91% 3.0 mph NNW4.8 kmh NNW 7.0 mph11.3 kmh 30.00 in1015.9 mb 0.00 in0.0 mm 0.00 in/hr0.0 mm/hr 0.17 in4.3 mm
06:40 AM 25.6°F-3.6°C 23.3°F-4.8°C 91% 5.0 mph N8.0 kmh N 8.0 mph12.9 kmh 30.01 in1016.3 mb 0.00 in0.0 mm 0.00 in/hr0.0 mm/hr 0.17 in4.3 mm
06:50 AM 25.5°F-3.6°C 23.2°F-4.9°C 91% 2.0 mph NNW3.2 kmh NNW 11.0 mph17.7 kmh 30.02 in1016.6 mb 0.00 in0.0 mm 0.00 in/hr0.0 mm/hr 0.17 in4.3 mm
07:00 AM 25.5°F-3.6°C 23.0°F-5.0°C 90% 4.0 mph N6.4 kmh N 11.0 mph17.7 kmh 30.03 in1016.9 mb 0.00 in0.0 mm 0.00 in/hr0.0 mm/hr 0.17 in4.3 mm
07:10 AM 24.8°F-4.0°C 22.3°F-5.4°C 90% 4.0 mph N6.4 kmh N 12.0 mph19.3 kmh 30.04 in1017.3 mb 0.00 in0.0 mm 0.00 in/hr0.0 mm/hr 0.17 in4.3 mm
07:20 AM 24.3°F-4.3°C 21.8°F-5.7°C 90% 7.0 mph N11.3 kmh N 10.0 mph16.1 kmh 30.05 in1017.6 mb 0.00 in0.0 mm 0.00 in/hr0.0 mm/hr 0.17 in4.3 mm
07:30 AM 23.6°F-4.7°C 21.1°F-6.1°C 90% 7.0 mph N11.3 kmh N 9.0 mph14.5 kmh 30.05 in1017.6 mb 0.00 in0.0 mm 0.00 in/hr0.0 mm/hr 0.17 in4.3 mm
07:40 AM 23.5°F-4.7°C 21.0°F-6.1°C 90% 5.0 mph N8.0 kmh N 10.0 mph16.1 kmh 30.06 in1017.9 mb 0.00 in0.0 mm 0.00 in/hr0.0 mm/hr 0.17 in4.3 mm
07:50 AM 23.4°F-4.8°C 20.9°F-6.2°C 90% 2.0 mph NNW3.2 kmh NNW 10.0 mph16.1 kmh 30.07 in1018.3 mb 0.00 in0.0 mm 0.00 in/hr0.0 mm/hr 0.17 in4.3 mm
08:00 AM 23.3°F-4.8°C 20.8°F-6.2°C 90% 9.0 mph NNE14.5 kmh NNE 11.0 mph17.7 kmh 30.07 in1018.3 mb 0.00 in0.0 mm 0.00 in/hr0.0 mm/hr 0.17 in4.3 mm
08:10 AM 23.3°F-4.8°C 20.8°F-6.2°C 90% 8.0 mph N12.9 kmh N 10.0 mph16.1 kmh 30.08 in1018.6 mb 0.00 in0.0 mm 0.00 in/hr0.0 mm/hr 0.17 in4.3 mm
08:20 AM 23.1°F-4.9°C 20.4°F-6.4°C 89% 6.0 mph N9.7 kmh N 11.0 mph17.7 kmh 30.08 in1018.6 mb 0.00 in0.0 mm 0.00 in/hr0.0 mm/hr 0.17 in4.3 mm
08:30 AM 23.1°F-4.9°C 20.4°F-6.4°C 89% 8.0 mph N12.9 kmh N 13.0 mph20.9 kmh 30.10 in1019.3 mb 0.00 in0.0 mm 0.00 in/hr0.0 mm/hr 0.17 in4.3 mm
08:40 AM 23.0°F-5.0°C 20.3°F-6.5°C 89% 3.0 mph NNW4.8 kmh NNW 11.0 mph17.7 kmh 30.11 in1019.6 mb 0.00 in0.0 mm 0.00 in/hr0.0 mm/hr 0.17 in4.3 mm
08:50 AM 23.1°F-4.9°C 20.6°F-6.3°C 90% 2.0 mph NNE3.2 kmh NNE 12.0 mph19.3 kmh 30.12 in1020.0 mb 0.00 in0.0 mm 0.00 in/hr0.0 mm/hr 0.17 in4.3 mm
09:00 AM 23.0°F-5.0°C 20.5°F-6.4°C 90% 8.0 mph N12.9 kmh N 14.0 mph22.5 kmh 30.12 in1020.0 mb 0.00 in0.0 mm 0.00 in/hr0.0 mm/hr 0.17 in4.3 mm
09:10 AM 23.0°F-5.0°C 20.5°F-6.4°C 90% 3.0 mph NE4.8 kmh NE 12.0 mph19.3 kmh 30.12 in1020.0 mb 0.00 in0.0 mm 0.00 in/hr0.0 mm/hr 0.17 in4.3 mm
09:20 AM 22.9°F-5.1°C 20.4°F-6.4°C 90% 5.0 mph N8.0 kmh N 15.0 mph24.1 kmh 30.12 in1020.0 mb 0.00 in0.0 mm 0.00 in/hr0.0 mm/hr 0.17 in4.3 mm
09:30 AM 22.9°F-5.1°C 20.4°F-6.4°C 90% 9.0 mph NNE14.5 kmh NNE 17.0 mph27.4 kmh 30.13 in1020.3 mb 0.00 in0.0 mm 0.00 in/hr0.0 mm/hr 0.17 in4.3 mm
09:40 AM 22.9°F-5.1°C 20.4°F-6.4°C 90% 11.0 mph NE17.7 kmh NE 14.0 mph22.5 kmh 30.13 in1020.3 mb 0.00 in0.0 mm 0.00 in/hr0.0 mm/hr 0.17 in4.3 mm
09:50 AM 22.9°F-5.1°C 20.4°F-6.4°C 90% 6.0 mph N9.7 kmh N 13.0 mph20.9 kmh 30.14 in1020.7 mb 0.00 in0.0 mm 0.00 in/hr0.0 mm/hr 0.17 in4.3 mm
10:00 AM 22.9°F-5.1°C 20.4°F-6.4°C 90% 6.0 mph NE9.7 kmh NE 13.0 mph20.9 kmh 30.14 in1020.7 mb 0.00 in0.0 mm 0.00 in/hr0.0 mm/hr 0.17 in4.3 mm
10:10 AM 23.0°F-5.0°C 20.5°F-6.4°C 90% 13.0 mph NNE20.9 kmh NNE 14.0 mph22.5 kmh 30.15 in1021.0 mb 0.00 in0.0 mm 0.00 in/hr0.0 mm/hr 0.17 in4.3 mm
10:20 AM 23.1°F-4.9°C 20.6°F-6.3°C 90% 6.0 mph N9.7 kmh N 12.0 mph19.3 kmh 30.16 in1021.3 mb 0.00 in0.0 mm 0.00 in/hr0.0 mm/hr 0.17 in4.3 mm
10:30 AM 23.0°F-5.0°C 20.5°F-6.4°C 90% 4.0 mph NE6.4 kmh NE 15.0 mph24.1 kmh 30.17 in1021.7 mb 0.00 in0.0 mm 0.00 in/hr0.0 mm/hr 0.17 in4.3 mm
10:40 AM 22.9°F-5.1°C 20.4°F-6.4°C 90% 3.0 mph NNE4.8 kmh NNE 17.0 mph27.4 kmh 30.17 in1021.7 mb 0.00 in0.0 mm 0.00 in/hr0.0 mm/hr 0.17 in4.3 mm
10:50 AM 23.1°F-4.9°C 20.6°F-6.3°C 90% 11.0 mph NE17.7 kmh NE 12.0 mph19.3 kmh 30.17 in1021.7 mb 0.00 in0.0 mm 0.00 in/hr0.0 mm/hr 0.17 in4.3 mm
11:01 AM 23.1°F-4.9°C 20.6°F-6.3°C 90% 7.0 mph NNE11.3 kmh NNE 13.0 mph20.9 kmh 30.18 in1022.0 mb 0.00 in0.0 mm 0.00 in/hr0.0 mm/hr 0.17 in4.3 mm
11:10 AM 23.3°F-4.8°C 20.8°F-6.2°C 90% 6.0 mph NNE9.7 kmh NNE 13.0 mph20.9 kmh 30.17 in1021.7 mb 0.00 in0.0 mm 0.00 in/hr0.0 mm/hr 0.17 in4.3 mm
11:20 AM 23.3°F-4.8°C 20.8°F-6.2°C 90% 4.0 mph NNE6.4 kmh NNE 11.0 mph17.7 kmh 30.19 in1022.4 mb 0.00 in0.0 mm 0.00 in/hr0.0 mm/hr 0.17 in4.3 mm
11:30 AM 23.6°F-4.7°C 21.4°F-5.9°C 91% 3.0 mph NE4.8 kmh NE 7.0 mph11.3 kmh 30.19 in1022.4 mb 0.00 in0.0 mm 0.00 in/hr0.0 mm/hr 0.17 in4.3 mm
11:40 AM 24.0°F-4.4°C 21.8°F-5.7°C 91% 2.0 mph NE3.2 kmh NE 10.0 mph16.1 kmh 30.20 in1022.7 mb 0.00 in0.0 mm 0.00 in/hr0.0 mm/hr 0.17 in4.3 mm
11:50 AM 24.4°F-4.2°C 22.2°F-5.4°C 91% 1.0 mph E1.6 kmh E 6.0 mph9.7 kmh 30.20 in1022.7 mb 0.00 in0.0 mm 0.00 in/hr0.0 mm/hr 0.17 in4.3 mm
12:00 PM 24.8°F-4.0°C 22.6°F-5.2°C 91% 3.0 mph NE4.8 kmh NE 7.0 mph11.3 kmh 30.20 in1022.7 mb 0.00 in0.0 mm 0.00 in/hr0.0 mm/hr 0.17 in4.3 mm
12:10 PM 24.8°F-4.0°C 22.6°F-5.2°C 91% 4.0 mph N6.4 kmh N 11.0 mph17.7 kmh 30.21 in1023.0 mb 0.00 in0.0 mm 0.00 in/hr0.0 mm/hr 0.17 in4.3 mm
12:20 PM 24.9°F-3.9°C 22.7°F-5.2°C 91% 10.0 mph NE16.1 kmh NE 10.0 mph16.1 kmh 30.21 in1023.0 mb 0.00 in0.0 mm 0.00 in/hr0.0 mm/hr 0.17 in4.3 mm
12:30 PM 24.9°F-3.9°C 22.7°F-5.2°C 91% 6.0 mph NE9.7 kmh NE 9.0 mph14.5 kmh 30.21 in1023.0 mb 0.00 in0.0 mm 0.00 in/hr0.0 mm/hr 0.17 in4.3 mm
12:40 PM 24.8°F-4.0°C 22.6°F-5.2°C 91% 1.0 mph N1.6 kmh N 11.0 mph17.7 kmh 30.21 in1023.0 mb 0.00 in0.0 mm 0.00 in/hr0.0 mm/hr 0.17 in4.3 mm
12:50 PM 24.6°F-4.1°C 22.4°F-5.3°C 91% 4.0 mph N6.4 kmh N 8.0 mph12.9 kmh 30.22 in1023.4 mb 0.00 in0.0 mm 0.00 in/hr0.0 mm/hr 0.17 in4.3 mm
01:00 PM 24.5°F-4.2°C 22.3°F-5.4°C 91% 3.0 mph NNW4.8 kmh NNW 7.0 mph11.3 kmh 30.22 in1023.4 mb 0.00 in0.0 mm 0.00 in/hr0.0 mm/hr 0.17 in4.3 mm
01:10 PM 24.6°F-4.1°C 22.4°F-5.3°C 91% 9.0 mph NNE14.5 kmh NNE 9.0 mph14.5 kmh 30.21 in1023.0 mb 0.00 in0.0 mm 0.00 in/hr0.0 mm/hr 0.17 in4.3 mm
01:20 PM 24.7°F-4.1°C 22.7°F-5.2°C 92% Calm Calm 6.0 mph9.7 kmh 30.22 in1023.4 mb 0.00 in0.0 mm 0.00 in/hr0.0 mm/hr 0.17 in4.3 mm
01:30 PM 24.7°F-4.1°C 22.5°F-5.3°C 91% 8.0 mph N12.9 kmh N 9.0 mph14.5 kmh 30.22 in1023.4 mb 0.00 in0.0 mm 0.00 in/hr0.0 mm/hr 0.17 in4.3 mm
01:40 PM 24.7°F-4.1°C 22.7°F-5.2°C 92% 7.0 mph N11.3 kmh N 8.0 mph12.9 kmh 30.21 in1023.0 mb 0.00 in0.0 mm 0.00 in/hr0.0 mm/hr 0.17 in4.3 mm
01:50 PM 24.5°F-4.2°C 22.5°F-5.3°C 92% 3.0 mph N4.8 kmh N 9.0 mph14.5 kmh 30.21 in1023.0 mb 0.00 in0.0 mm 0.00 in/hr0.0 mm/hr 0.17 in4.3 mm
02:00 PM 24.3°F-4.3°C 22.3°F-5.4°C 92% 2.0 mph N3.2 kmh N 7.0 mph11.3 kmh 30.22 in1023.4 mb 0.00 in0.0 mm 0.00 in/hr0.0 mm/hr 0.17 in4.3 mm
02:10 PM 24.3°F-4.3°C 22.1°F-5.5°C 91% 2.0 mph N3.2 kmh N 7.0 mph11.3 kmh 30.22 in1023.4 mb 0.00 in0.0 mm 0.00 in/hr0.0 mm/hr 0.17 in4.3 mm
02:20 PM 24.6°F-4.1°C 22.6°F-5.2°C 92% 3.0 mph ENE4.8 kmh ENE 8.0 mph12.9 kmh 30.21 in1023.0 mb 0.00 in0.0 mm 0.00 in/hr0.0 mm/hr 0.17 in4.3 mm
02:30 PM 24.7°F-4.1°C 22.7°F-5.2°C 92% Calm Calm 8.0 mph12.9 kmh 30.22 in1023.4 mb 0.00 in0.0 mm 0.00 in/hr0.0 mm/hr 0.17 in4.3 mm
02:40 PM 24.6°F-4.1°C 22.6°F-5.2°C 92% 7.0 mph NE11.3 kmh NE 7.0 mph11.3 kmh 30.21 in1023.0 mb 0.00 in0.0 mm 0.00 in/hr0.0 mm/hr 0.17 in4.3 mm
02:50 PM 24.3°F-4.3°C 22.3°F-5.4°C 92% 1.0 mph N1.6 kmh N 7.0 mph11.3 kmh 30.21 in1023.0 mb 0.00 in0.0 mm 0.00 in/hr0.0 mm/hr 0.17 in4.3 mm
03:01 PM 24.5°F-4.2°C 22.3°F-5.4°C 91% 3.0 mph NE4.8 kmh NE 7.0 mph11.3 kmh 30.21 in1023.0 mb 0.00 in0.0 mm 0.00 in/hr0.0 mm/hr 0.17 in4.3 mm
03:10 PM 24.7°F-4.1°C 22.7°F-5.2°C 92% 4.0 mph NE6.4 kmh NE 9.0 mph14.5 kmh 30.21 in1023.0 mb 0.08 in2.0 mm 0.53 in/hr13.5 mm/hr 0.25 in6.4 mm
03:20 PM 24.5°F-4.2°C 22.3°F-5.4°C 91% 2.0 mph NNE3.2 kmh NNE 9.0 mph14.5 kmh 30.21 in1023.0 mb 0.08 in2.0 mm 0.00 in/hr0.0 mm/hr 0.25 in6.4 mm
03:30 PM 24.7°F-4.1°C 22.5°F-5.3°C 91% Calm Calm 9.0 mph14.5 kmh 30.21 in1023.0 mb 0.08 in2.0 mm 0.00 in/hr0.0 mm/hr 0.25 in6.4 mm
03:40 PM 24.8°F-4.0°C 22.6°F-5.2°C 91% 9.0 mph NE14.5 kmh NE 10.0 mph16.1 kmh 30.21 in1023.0 mb 0.08 in2.0 mm 0.00 in/hr0.0 mm/hr 0.25 in6.4 mm
03:50 PM 25.0°F-3.9°C 22.8°F-5.1°C 91% 6.0 mph NNE9.7 kmh NNE 6.0 mph9.7 kmh 30.22 in1023.4 mb 0.08 in2.0 mm 0.00 in/hr0.0 mm/hr 0.25 in6.4 mm
04:00 PM 24.6°F-4.1°C 22.4°F-5.3°C 91% 3.0 mph N4.8 kmh N 6.0 mph9.7 kmh 30.22 in1023.4 mb 0.08 in2.0 mm 0.00 in/hr0.0 mm/hr 0.25 in6.4 mm
04:10 PM 24.7°F-4.1°C 22.5°F-5.3°C 91% Calm Calm 4.0 mph6.4 kmh 30.22 in1023.4 mb 0.00 in0.0 mm 0.00 in/hr0.0 mm/hr 0.25 in6.4 mm
04:20 PM 24.8°F-4.0°C 22.6°F-5.2°C 91% 3.0 mph N4.8 kmh N 7.0 mph11.3 kmh 30.23 in1023.7 mb 0.00 in0.0 mm 0.00 in/hr0.0 mm/hr 0.25 in6.4 mm
04:30 PM 24.9°F-3.9°C 22.7°F-5.2°C 91% Calm Calm 4.0 mph6.4 kmh 30.23 in1023.7 mb 0.00 in0.0 mm 0.00 in/hr0.0 mm/hr 0.25 in6.4 mm
04:40 PM 24.5°F-4.2°C 22.3°F-5.4°C 91% 4.0 mph N6.4 kmh N 5.0 mph8.0 kmh 30.24 in1024.0 mb 0.00 in0.0 mm 0.00 in/hr0.0 mm/hr 0.25 in6.4 mm
04:50 PM 24.7°F-4.1°C 22.5°F-5.3°C 91% 2.0 mph NNE3.2 kmh NNE 5.0 mph8.0 kmh 30.24 in1024.0 mb 0.00 in0.0 mm 0.00 in/hr0.0 mm/hr 0.25 in6.4 mm
05:01 PM 24.9°F-3.9°C 22.7°F-5.2°C 91% Calm Calm 4.0 mph6.4 kmh 30.24 in1024.0 mb 0.00 in0.0 mm 0.00 in/hr0.0 mm/hr 0.25 in6.4 mm
05:10 PM 25.2°F-3.8°C 23.0°F-5.0°C 91% 1.0 mph NE1.6 kmh NE 4.0 mph6.4 kmh 30.24 in1024.0 mb 0.00 in0.0 mm 0.00 in/hr0.0 mm/hr 0.25 in6.4 mm
05:20 PM 25.0°F-3.9°C 22.8°F-5.1°C 91% Calm Calm 4.0 mph6.4 kmh 30.25 in1024.4 mb 0.00 in0.0 mm 0.00 in/hr0.0 mm/hr 0.25 in6.4 mm
05:30 PM 25.2°F-3.8°C 23.0°F-5.0°C 91% Calm Calm 2.0 mph3.2 kmh 30.25 in1024.4 mb 0.00 in0.0 mm 0.00 in/hr0.0 mm/hr 0.25 in6.4 mm
05:40 PM 25.2°F-3.8°C 22.7°F-5.2°C 90% 5.0 mph NE8.0 kmh NE 6.0 mph9.7 kmh 30.25 in1024.4 mb 0.00 in0.0 mm 0.00 in/hr0.0 mm/hr 0.25 in6.4 mm
05:50 PM 25.3°F-3.7°C 22.8°F-5.1°C 90% Calm Calm 4.0 mph6.4 kmh 30.25 in1024.4 mb 0.00 in0.0 mm 0.00 in/hr0.0 mm/hr 0.25 in6.4 mm
06:00 PM 25.5°F-3.6°C 23.0°F-5.0°C 90% 1.0 mph NE1.6 kmh NE 5.0 mph8.0 kmh 30.26 in1024.7 mb 0.00 in0.0 mm 0.00 in/hr0.0 mm/hr 0.25 in6.4 mm
06:10 PM 25.6°F-3.6°C 23.1°F-4.9°C 90% 4.0 mph NE6.4 kmh NE 7.0 mph11.3 kmh 30.26 in1024.7 mb 0.00 in0.0 mm 0.00 in/hr0.0 mm/hr 0.25 in6.4 mm
06:20 PM 25.6°F-3.6°C 23.1°F-4.9°C 90% Calm Calm 3.0 mph4.8 kmh 30.26 in1024.7 mb 0.00 in0.0 mm 0.00 in/hr0.0 mm/hr 0.25 in6.4 mm
06:30 PM 25.6°F-3.6°C 23.1°F-4.9°C 90% Calm Calm 5.0 mph8.0 kmh 30.26 in1024.7 mb 0.00 in0.0 mm 0.00 in/hr0.0 mm/hr 0.25 in6.4 mm
06:40 PM 25.6°F-3.6°C 23.1°F-4.9°C 90% 2.0 mph ENE3.2 kmh ENE 5.0 mph8.0 kmh 30.25 in1024.4 mb 0.00 in0.0 mm 0.00 in/hr0.0 mm/hr 0.25 in6.4 mm
06:50 PM 25.6°F-3.6°C 22.8°F-5.1°C 89% Calm Calm 4.0 mph6.4 kmh 30.25 in1024.4 mb 0.00 in0.0 mm 0.00 in/hr0.0 mm/hr 0.25 in6.4 mm
07:01 PM 25.6°F-3.6°C 22.8°F-5.1°C 89% Calm Calm 4.0 mph6.4 kmh 30.26 in1024.7 mb 0.00 in0.0 mm 0.00 in/hr0.0 mm/hr 0.25 in6.4 mm
07:10 PM 25.6°F-3.6°C 22.8°F-5.1°C 89% 3.0 mph ENE4.8 kmh ENE 3.0 mph4.8 kmh 30.27 in1025.1 mb 0.00 in0.0 mm 0.00 in/hr0.0 mm/hr 0.25 in6.4 mm
07:20 PM 25.6°F-3.6°C 22.8°F-5.1°C 89% 2.0 mph ENE3.2 kmh ENE 3.0 mph4.8 kmh 30.27 in1025.1 mb 0.00 in0.0 mm 0.00 in/hr0.0 mm/hr 0.25 in6.4 mm
07:30 PM 25.5°F-3.6°C 22.7°F-5.2°C 89% Calm Calm 4.0 mph6.4 kmh 30.28 in1025.4 mb 0.00 in0.0 mm 0.00 in/hr0.0 mm/hr 0.25 in6.4 mm
07:40 PM 25.6°F-3.6°C 22.8°F-5.1°C 89% Calm Calm 3.0 mph4.8 kmh 30.28 in1025.4 mb 0.00 in0.0 mm 0.00 in/hr0.0 mm/hr 0.25 in6.4 mm
07:50 PM 25.6°F-3.6°C 22.8°F-5.1°C 89% Calm Calm 3.0 mph4.8 kmh 30.28 in1025.4 mb 0.00 in0.0 mm 0.00 in/hr0.0 mm/hr 0.25 in6.4 mm
08:00 PM 25.4°F-3.7°C 22.6°F-5.2°C 89% 3.0 mph E4.8 kmh E 6.0 mph9.7 kmh 30.28 in1025.4 mb 0.00 in0.0 mm 0.00 in/hr0.0 mm/hr 0.25 in6.4 mm
08:10 PM 25.3°F-3.7°C 22.5°F-5.3°C 89% Calm Calm 4.0 mph6.4 kmh 30.29 in1025.7 mb 0.00 in0.0 mm 0.00 in/hr0.0 mm/hr 0.25 in6.4 mm
08:20 PM 25.3°F-3.7°C 22.5°F-5.3°C 89% Calm Calm 3.0 mph4.8 kmh 30.30 in1026.1 mb 0.00 in0.0 mm 0.00 in/hr0.0 mm/hr 0.25 in6.4 mm
08:30 PM 25.2°F-3.8°C 22.4°F-5.3°C 89% 1.0 mph ENE1.6 kmh ENE 7.0 mph11.3 kmh 30.30 in1026.1 mb 0.00 in0.0 mm 0.00 in/hr0.0 mm/hr 0.25 in6.4 mm
08:40 PM 25.2°F-3.8°C 22.4°F-5.3°C 89% Calm Calm 5.0 mph8.0 kmh 30.29 in1025.7 mb 0.00 in0.0 mm 0.00 in/hr0.0 mm/hr 0.25 in6.4 mm
08:50 PM 25.2°F-3.8°C 22.4°F-5.3°C 89% 2.0 mph E3.2 kmh E 4.0 mph6.4 kmh 30.29 in1025.7 mb 0.00 in0.0 mm 0.00 in/hr0.0 mm/hr 0.25 in6.4 mm
09:01 PM 25.1°F-3.8°C 22.3°F-5.4°C 89% 2.0 mph ENE3.2 kmh ENE 10.0 mph16.1 kmh 30.29 in1025.7 mb 0.00 in0.0 mm 0.00 in/hr0.0 mm/hr 0.25 in6.4 mm
09:10 PM 25.0°F-3.9°C 22.0°F-5.6°C 88% 5.0 mph NE8.0 kmh NE 9.0 mph14.5 kmh 30.30 in1026.1 mb 0.00 in0.0 mm 0.00 in/hr0.0 mm/hr 0.25 in6.4 mm
09:20 PM 25.1°F-3.8°C 22.3°F-5.4°C 89% 2.0 mph E3.2 kmh E 7.0 mph11.3 kmh 30.29 in1025.7 mb 0.00 in0.0 mm 0.00 in/hr0.0 mm/hr 0.25 in6.4 mm
09:30 PM 25.0°F-3.9°C 22.2°F-5.4°C 89% 1.0 mph ENE1.6 kmh ENE 7.0 mph11.3 kmh 30.30 in1026.1 mb 0.00 in0.0 mm 0.00 in/hr0.0 mm/hr 0.25 in6.4 mm
09:40 PM 25.0°F-3.9°C 22.2°F-5.4°C 89% 2.0 mph ENE3.2 kmh ENE 5.0 mph8.0 kmh 30.30 in1026.1 mb 0.00 in0.0 mm 0.00 in/hr0.0 mm/hr 0.25 in6.4 mm
09:50 PM 25.1°F-3.8°C 22.3°F-5.4°C 89% 3.0 mph NE4.8 kmh NE 4.0 mph6.4 kmh 30.30 in1026.1 mb 0.00 in0.0 mm 0.00 in/hr0.0 mm/hr 0.25 in6.4 mm
10:01 PM 25.2°F-3.8°C 22.4°F-5.3°C 89% 3.0 mph E4.8 kmh E 5.0 mph8.0 kmh 30.30 in1026.1 mb 0.00 in0.0 mm 0.00 in/hr0.0 mm/hr 0.25 in6.4 mm
10:10 PM 25.3°F-3.7°C 22.5°F-5.3°C 89% 4.0 mph NE6.4 kmh NE 4.0 mph6.4 kmh 30.30 in1026.1 mb 0.00 in0.0 mm 0.00 in/hr0.0 mm/hr 0.25 in6.4 mm
10:21 PM 25.4°F-3.7°C 22.6°F-5.2°C 89% Calm Calm 3.0 mph4.8 kmh 30.30 in1026.1 mb 0.00 in0.0 mm 0.00 in/hr0.0 mm/hr 0.25 in6.4 mm
10:30 PM 25.6°F-3.6°C 22.8°F-5.1°C 89% Calm Calm 5.0 mph8.0 kmh 30.30 in1026.1 mb 0.00 in0.0 mm 0.00 in/hr0.0 mm/hr 0.25 in6.4 mm
10:40 PM 25.7°F-3.5°C 22.9°F-5.1°C 89% 2.0 mph NE3.2 kmh NE 5.0 mph8.0 kmh 30.30 in1026.1 mb 0.00 in0.0 mm 0.00 in/hr0.0 mm/hr 0.25 in6.4 mm
10:50 PM 25.7°F-3.5°C 23.2°F-4.9°C 90% 3.0 mph ENE4.8 kmh ENE 5.0 mph8.0 kmh 30.29 in1025.7 mb 0.00 in0.0 mm 0.00 in/hr0.0 mm/hr 0.25 in6.4 mm
11:01 PM 25.8°F-3.4°C 23.3°F-4.8°C 90% 2.0 mph E3.2 kmh E 4.0 mph6.4 kmh 30.28 in1025.4 mb 0.00 in0.0 mm 0.00 in/hr0.0 mm/hr 0.25 in6.4 mm
11:10 PM 25.9°F-3.4°C 23.4°F-4.8°C 90% Calm Calm 2.0 mph3.2 kmh 30.28 in1025.4 mb 0.00 in0.0 mm 0.00 in/hr0.0 mm/hr 0.25 in6.4 mm
11:20 PM 26.0°F-3.3°C 23.5°F-4.7°C 90% 3.0 mph E4.8 kmh E 4.0 mph6.4 kmh 30.28 in1025.4 mb 0.00 in0.0 mm 0.00 in/hr0.0 mm/hr 0.25 in6.4 mm
11:30 PM 26.1°F-3.3°C 23.6°F-4.7°C 90% 2.0 mph E3.2 kmh E 6.0 mph9.7 kmh 30.28 in1025.4 mb 0.00 in0.0 mm 0.00 in/hr0.0 mm/hr 0.25 in6.4 mm
11:40 PM 26.1°F-3.3°C 23.6°F-4.7°C 90% 1.0 mph ESE1.6 kmh ESE 4.0 mph6.4 kmh 30.27 in1025.1 mb 0.00 in0.0 mm 0.00 in/hr0.0 mm/hr 0.25 in6.4 mm
11:50 PM 26.3°F-3.2°C 23.8°F-4.6°C 90% 2.0 mph E3.2 kmh E 3.0 mph4.8 kmh 30.27 in1025.1 mb 0.00 in0.0 mm 0.00 in/hr0.0 mm/hr 0.25 in6.4 mm